sensor_id;sensor_type;location;lat;lon;timestamp;temperature;humidity
42245;DHT22;27912;51.828;5.688;2022-10-31T00:01:33;12.70;99.90
42245;DHT22;27912;51.828;5.688;2022-10-31T00:03:58;12.70;99.90
42245;DHT22;27912;51.828;5.688;2022-10-31T00:06:24;12.70;99.90
42245;DHT22;27912;51.828;5.688;2022-10-31T00:08:59;12.70;99.90
42245;DHT22;27912;51.828;5.688;2022-10-31T00:11:26;12.60;99.90
42245;DHT22;27912;51.828;5.688;2022-10-31T00:13:52;12.60;99.90
42245;DHT22;27912;51.828;5.688;2022-10-31T00:16:22;12.60;99.90
42245;DHT22;27912;51.828;5.688;2022-10-31T00:18:53;12.60;99.90
42245;DHT22;27912;51.828;5.688;2022-10-31T00:21:19;12.60;99.90
42245;DHT22;27912;51.828;5.688;2022-10-31T00:23:45;12.60;99.90
42245;DHT22;27912;51.828;5.688;2022-10-31T00:26:11;12.60;99.90
42245;DHT22;27912;51.828;5.688;2022-10-31T00:28:37;12.60;99.90
42245;DHT22;27912;51.828;5.688;2022-10-31T00:31:04;12.60;99.90
42245;DHT22;27912;51.828;5.688;2022-10-31T00:33:32;12.50;99.90
42245;DHT22;27912;51.828;5.688;2022-10-31T00:35:58;12.50;99.90
42245;DHT22;27912;51.828;5.688;2022-10-31T00:38:23;12.40;99.90
42245;DHT22;27912;51.828;5.688;2022-10-31T00:40:49;12.30;99.90
42245;DHT22;27912;51.828;5.688;2022-10-31T00:43:14;12.20;99.90
42245;DHT22;27912;51.828;5.688;2022-10-31T00:45:41;12.20;99.90
42245;DHT22;27912;51.828;5.688;2022-10-31T00:48:08;12.30;99.90
42245;DHT22;27912;51.828;5.688;2022-10-31T00:50:33;12.20;99.90
42245;DHT22;27912;51.828;5.688;2022-10-31T00:52:59;12.20;99.90
42245;DHT22;27912;51.828;5.688;2022-10-31T00:55:24;12.20;99.90
42245;DHT22;27912;51.828;5.688;2022-10-31T00:57:50;12.30;99.90
42245;DHT22;27912;51.828;5.688;2022-10-31T01:00:15;12.30;99.90
42245;DHT22;27912;51.828;5.688;2022-10-31T01:02:41;12.30;99.90
42245;DHT22;27912;51.828;5.688;2022-10-31T01:05:07;12.30;99.90
42245;DHT22;27912;51.828;5.688;2022-10-31T01:07:36;12.30;99.90
42245;DHT22;27912;51.828;5.688;2022-10-31T01:10:01;12.30;99.90
42245;DHT22;27912;51.828;5.688;2022-10-31T01:12:27;12.30;99.90
42245;DHT22;27912;51.828;5.688;2022-10-31T01:14:52;12.20;99.90
42245;DHT22;27912;51.828;5.688;2022-10-31T01:17:18;12.20;99.90
42245;DHT22;27912;51.828;5.688;2022-10-31T01:19:44;12.20;99.90
42245;DHT22;27912;51.828;5.688;2022-10-31T01:22:10;12.10;99.90
42245;DHT22;27912;51.828;5.688;2022-10-31T01:24:35;12.10;99.90
42245;DHT22;27912;51.828;5.688;2022-10-31T01:27:01;12.00;99.90
42245;DHT22;27912;51.828;5.688;2022-10-31T01:29:27;12.00;99.90
42245;DHT22;27912;51.828;5.688;2022-10-31T01:31:52;11.90;99.90
42245;DHT22;27912;51.828;5.688;2022-10-31T01:34:18;11.90;99.90
42245;DHT22;27912;51.828;5.688;2022-10-31T01:36:44;11.80;99.90
42245;DHT22;27912;51.828;5.688;2022-10-31T01:39:14;11.80;99.90
42245;DHT22;27912;51.828;5.688;2022-10-31T01:41:43;11.70;99.90
42245;DHT22;27912;51.828;5.688;2022-10-31T01:46:52;11.70;99.90
42245;DHT22;27912;51.828;5.688;2022-10-31T01:52:03;11.60;99.90
42245;DHT22;27912;51.828;5.688;2022-10-31T01:54:35;11.50;99.90
42245;DHT22;27912;51.828;5.688;2022-10-31T01:57:03;11.50;99.90
42245;DHT22;27912;51.828;5.688;2022-10-31T01:59:31;11.50;99.90
42245;DHT22;27912;51.828;5.688;2022-10-31T02:01:59;11.40;99.90
42245;DHT22;27912;51.828;5.688;2022-10-31T02:04:25;11.40;99.90
42245;DHT22;27912;51.828;5.688;2022-10-31T02:06:55;11.40;99.90
42245;DHT22;27912;51.828;5.688;2022-10-31T02:09:22;11.40;99.90
42245;DHT22;27912;51.828;5.688;2022-10-31T02:11:51;11.40;99.90
42245;DHT22;27912;51.828;5.688;2022-10-31T02:14:18;11.30;99.90
42245;DHT22;27912;51.828;5.688;2022-10-31T02:16:43;11.30;99.90
42245;DHT22;27912;51.828;5.688;2022-10-31T02:19:12;11.30;99.90
42245;DHT22;27912;51.828;5.688;2022-10-31T02:21:58;11.30;99.90
42245;DHT22;27912;51.828;5.688;2022-10-31T02:24:44;11.30;99.90
42245;DHT22;27912;51.828;5.688;2022-10-31T02:27:21;11.20;99.90
42245;DHT22;27912;51.828;5.688;2022-10-31T02:30:16;11.20;99.90
42245;DHT22;27912;51.828;5.688;2022-10-31T02:35:44;11.10;99.90
42245;DHT22;27912;51.828;5.688;2022-10-31T02:38:39;11.10;99.90
42245;DHT22;27912;51.828;5.688;2022-10-31T02:41:31;11.10;99.90
42245;DHT22;27912;51.828;5.688;2022-10-31T02:44:07;11.20;99.90
42245;DHT22;27912;51.828;5.688;2022-10-31T02:46:48;11.10;99.90
42245;DHT22;27912;51.828;5.688;2022-10-31T02:49:25;11.10;99.90
42245;DHT22;27912;51.828;5.688;2022-10-31T02:51:53;11.10;99.90
42245;DHT22;27912;51.828;5.688;2022-10-31T02:54:23;11.00;99.90
42245;DHT22;27912;51.828;5.688;2022-10-31T02:56:50;11.00;99.90
42245;DHT22;27912;51.828;5.688;2022-10-31T02:59:17;11.00;99.90
42245;DHT22;27912;51.828;5.688;2022-10-31T03:04:55;11.00;99.90
42245;DHT22;27912;51.828;5.688;2022-10-31T03:19:10;10.90;99.90
42245;DHT22;27912;51.828;5.688;2022-10-31T03:21:43;10.90;99.90
42245;DHT22;27912;51.828;5.688;2022-10-31T03:24:10;10.80;99.90
42245;DHT22;27912;51.828;5.688;2022-10-31T03:26:50;10.80;99.90
42245;DHT22;27912;51.828;5.688;2022-10-31T03:29:20;10.80;99.90
42245;DHT22;27912;51.828;5.688;2022-10-31T03:32:04;10.80;99.90
42245;DHT22;27912;51.828;5.688;2022-10-31T03:34:31;10.70;99.90
42245;DHT22;27912;51.828;5.688;2022-10-31T03:36:59;10.70;99.90
42245;DHT22;27912;51.828;5.688;2022-10-31T03:39:26;10.80;99.90
42245;DHT22;27912;51.828;5.688;2022-10-31T03:42:17;10.80;99.90
42245;DHT22;27912;51.828;5.688;2022-10-31T03:44:48;10.80;99.90
42245;DHT22;27912;51.828;5.688;2022-10-31T03:47:15;10.80;99.90
42245;DHT22;27912;51.828;5.688;2022-10-31T03:49:41;10.80;99.90
42245;DHT22;27912;51.828;5.688;2022-10-31T03:52:24;10.80;99.90
42245;DHT22;27912;51.828;5.688;2022-10-31T03:55:04;10.80;99.90
42245;DHT22;27912;51.828;5.688;2022-10-31T03:57:39;10.70;99.90
42245;DHT22;27912;51.828;5.688;2022-10-31T04:00:12;10.70;99.90
42245;DHT22;27912;51.828;5.688;2022-10-31T04:02:42;10.70;99.90
42245;DHT22;27912;51.828;5.688;2022-10-31T04:05:08;10.70;99.90
42245;DHT22;27912;51.828;5.688;2022-10-31T04:07:40;10.70;99.90
42245;DHT22;27912;51.828;5.688;2022-10-31T04:10:11;10.70;99.90
42245;DHT22;27912;51.828;5.688;2022-10-31T04:12:39;10.70;99.90
42245;DHT22;27912;51.828;5.688;2022-10-31T04:15:08;10.70;99.90
42245;DHT22;27912;51.828;5.688;2022-10-31T04:17:37;10.70;99.90
42245;DHT22;27912;51.828;5.688;2022-10-31T04:20:05;10.70;99.90
42245;DHT22;27912;51.828;5.688;2022-10-31T04:22:31;10.70;99.90
42245;DHT22;27912;51.828;5.688;2022-10-31T04:24:56;10.70;99.90
42245;DHT22;27912;51.828;5.688;2022-10-31T04:27:22;10.70;99.90
42245;DHT22;27912;51.828;5.688;2022-10-31T04:29:47;10.70;99.90
42245;DHT22;27912;51.828;5.688;2022-10-31T04:32:13;10.60;99.90
42245;DHT22;27912;51.828;5.688;2022-10-31T04:34:39;10.70;99.90
42245;DHT22;27912;51.828;5.688;2022-10-31T04:37:04;10.60;99.90
42245;DHT22;27912;51.828;5.688;2022-10-31T04:39:30;10.60;99.90
42245;DHT22;27912;51.828;5.688;2022-10-31T04:41:56;10.60;99.90
42245;DHT22;27912;51.828;5.688;2022-10-31T04:44:21;10.60;99.90
42245;DHT22;27912;51.828;5.688;2022-10-31T04:46:47;10.50;99.90
42245;DHT22;27912;51.828;5.688;2022-10-31T04:49:13;10.50;99.90
42245;DHT22;27912;51.828;5.688;2022-10-31T04:51:38;10.60;99.90
42245;DHT22;27912;51.828;5.688;2022-10-31T04:54:04;10.50;99.90
42245;DHT22;27912;51.828;5.688;2022-10-31T04:56:30;10.50;99.90
42245;DHT22;27912;51.828;5.688;2022-10-31T04:58:55;10.50;99.90
42245;DHT22;27912;51.828;5.688;2022-10-31T05:01:21;10.50;99.90
42245;DHT22;27912;51.828;5.688;2022-10-31T05:03:46;10.50;99.90
42245;DHT22;27912;51.828;5.688;2022-10-31T05:06:12;10.50;99.90
42245;DHT22;27912;51.828;5.688;2022-10-31T05:08:38;10.50;99.90
42245;DHT22;27912;51.828;5.688;2022-10-31T05:11:04;10.50;99.90
42245;DHT22;27912;51.828;5.688;2022-10-31T05:13:30;10.50;99.90
42245;DHT22;27912;51.828;5.688;2022-10-31T05:15:56;10.50;99.90
42245;DHT22;27912;51.828;5.688;2022-10-31T05:18:21;10.40;99.90
42245;DHT22;27912;51.828;5.688;2022-10-31T05:20:47;10.40;99.90
42245;DHT22;27912;51.828;5.688;2022-10-31T05:23:12;10.40;99.90
42245;DHT22;27912;51.828;5.688;2022-10-31T05:25:39;10.50;99.90
42245;DHT22;27912;51.828;5.688;2022-10-31T05:28:05;10.40;99.90
42245;DHT22;27912;51.828;5.688;2022-10-31T05:30:31;10.40;99.90
42245;DHT22;27912;51.828;5.688;2022-10-31T05:32:57;10.40;99.90
42245;DHT22;27912;51.828;5.688;2022-10-31T05:35:28;10.40;99.90
42245;DHT22;27912;51.828;5.688;2022-10-31T05:37:54;10.40;99.90
42245;DHT22;27912;51.828;5.688;2022-10-31T05:40:20;10.40;99.90
42245;DHT22;27912;51.828;5.688;2022-10-31T05:42:47;10.40;99.90
42245;DHT22;27912;51.828;5.688;2022-10-31T05:45:15;10.40;99.90
42245;DHT22;27912;51.828;5.688;2022-10-31T05:47:41;10.40;99.90
42245;DHT22;27912;51.828;5.688;2022-10-31T05:50:07;10.40;99.90
42245;DHT22;27912;51.828;5.688;2022-10-31T05:52:33;10.40;99.90
42245;DHT22;27912;51.828;5.688;2022-10-31T05:54:59;10.40;99.90
42245;DHT22;27912;51.828;5.688;2022-10-31T05:57:25;10.30;99.90
42245;DHT22;27912;51.828;5.688;2022-10-31T05:59:51;10.30;99.90
42245;DHT22;27912;51.828;5.688;2022-10-31T06:02:20;10.30;99.90
42245;DHT22;27912;51.828;5.688;2022-10-31T06:04:45;10.30;99.90
42245;DHT22;27912;51.828;5.688;2022-10-31T06:07:11;10.30;99.90
42245;DHT22;27912;51.828;5.688;2022-10-31T06:09:36;10.20;99.90
42245;DHT22;27912;51.828;5.688;2022-10-31T06:12:02;10.20;99.90
42245;DHT22;27912;51.828;5.688;2022-10-31T06:14:28;10.20;99.90
42245;DHT22;27912;51.828;5.688;2022-10-31T06:16:56;10.20;99.90
42245;DHT22;27912;51.828;5.688;2022-10-31T06:19:22;10.20;99.90
42245;DHT22;27912;51.828;5.688;2022-10-31T06:21:48;10.30;99.90
42245;DHT22;27912;51.828;5.688;2022-10-31T06:24:13;10.20;99.90
42245;DHT22;27912;51.828;5.688;2022-10-31T06:26:40;10.20;99.90
42245;DHT22;27912;51.828;5.688;2022-10-31T06:29:06;10.20;99.90
42245;DHT22;27912;51.828;5.688;2022-10-31T06:31:31;10.20;99.90
42245;DHT22;27912;51.828;5.688;2022-10-31T06:33:57;10.20;99.90
42245;DHT22;27912;51.828;5.688;2022-10-31T06:36:23;10.20;99.90
42245;DHT22;27912;51.828;5.688;2022-10-31T06:38:48;10.20;99.90
42245;DHT22;27912;51.828;5.688;2022-10-31T06:41:14;10.20;99.90
42245;DHT22;27912;51.828;5.688;2022-10-31T06:43:39;10.20;99.90
42245;DHT22;27912;51.828;5.688;2022-10-31T06:46:05;10.20;99.90
42245;DHT22;27912;51.828;5.688;2022-10-31T06:48:31;10.20;99.90
42245;DHT22;27912;51.828;5.688;2022-10-31T06:50:58;10.30;99.90
42245;DHT22;27912;51.828;5.688;2022-10-31T06:53:24;10.30;99.90
42245;DHT22;27912;51.828;5.688;2022-10-31T06:55:50;10.30;99.90
42245;DHT22;27912;51.828;5.688;2022-10-31T06:58:15;10.30;99.90
42245;DHT22;27912;51.828;5.688;2022-10-31T07:00:41;10.30;99.90
42245;DHT22;27912;51.828;5.688;2022-10-31T07:03:10;10.30;99.90
42245;DHT22;27912;51.828;5.688;2022-10-31T07:05:36;10.30;99.90
42245;DHT22;27912;51.828;5.688;2022-10-31T07:08:05;10.30;99.90
42245;DHT22;27912;51.828;5.688;2022-10-31T07:10:33;10.30;99.90
42245;DHT22;27912;51.828;5.688;2022-10-31T07:13:01;10.30;99.90
42245;DHT22;27912;51.828;5.688;2022-10-31T07:15:28;10.20;99.90
42245;DHT22;27912;51.828;5.688;2022-10-31T07:17:58;10.30;99.90
42245;DHT22;27912;51.828;5.688;2022-10-31T07:20:24;10.30;99.90
42245;DHT22;27912;51.828;5.688;2022-10-31T07:22:49;10.30;99.90
42245;DHT22;27912;51.828;5.688;2022-10-31T07:25:15;10.30;99.90
42245;DHT22;27912;51.828;5.688;2022-10-31T07:27:42;10.40;99.90
42245;DHT22;27912;51.828;5.688;2022-10-31T07:30:10;10.50;99.90
42245;DHT22;27912;51.828;5.688;2022-10-31T07:32:47;10.60;99.90
42245;DHT22;27912;51.828;5.688;2022-10-31T07:35:18;10.70;99.90
42245;DHT22;27912;51.828;5.688;2022-10-31T07:37:44;10.80;99.90
42245;DHT22;27912;51.828;5.688;2022-10-31T07:40:10;10.80;99.90
42245;DHT22;27912;51.828;5.688;2022-10-31T07:42:41;11.00;99.90
42245;DHT22;27912;51.828;5.688;2022-10-31T07:45:08;11.10;99.90
42245;DHT22;27912;51.828;5.688;2022-10-31T07:47:42;11.10;99.90
42245;DHT22;27912;51.828;5.688;2022-10-31T07:50:12;11.30;99.90
42245;DHT22;27912;51.828;5.688;2022-10-31T07:52:38;11.30;99.90
42245;DHT22;27912;51.828;5.688;2022-10-31T07:55:04;11.50;99.90
42245;DHT22;27912;51.828;5.688;2022-10-31T07:57:30;11.70;99.90
42245;DHT22;27912;51.828;5.688;2022-10-31T07:59:56;11.80;99.90
42245;DHT22;27912;51.828;5.688;2022-10-31T08:02:22;11.90;99.90
42245;DHT22;27912;51.828;5.688;2022-10-31T08:04:48;12.10;99.90
42245;DHT22;27912;51.828;5.688;2022-10-31T08:07:14;12.20;99.90
42245;DHT22;27912;51.828;5.688;2022-10-31T08:09:40;12.40;99.90
42245;DHT22;27912;51.828;5.688;2022-10-31T08:12:05;12.50;99.90
42245;DHT22;27912;51.828;5.688;2022-10-31T08:14:31;12.60;99.90
42245;DHT22;27912;51.828;5.688;2022-10-31T08:16:57;12.70;99.90
42245;DHT22;27912;51.828;5.688;2022-10-31T08:19:22;12.90;99.90
42245;DHT22;27912;51.828;5.688;2022-10-31T08:21:51;12.90;99.90
42245;DHT22;27912;51.828;5.688;2022-10-31T08:24:18;13.00;99.90
42245;DHT22;27912;51.828;5.688;2022-10-31T08:26:43;13.10;99.90
42245;DHT22;27912;51.828;5.688;2022-10-31T08:29:09;13.20;99.90
42245;DHT22;27912;51.828;5.688;2022-10-31T08:31:35;13.30;99.90
42245;DHT22;27912;51.828;5.688;2022-10-31T08:34:01;13.30;99.90
42245;DHT22;27912;51.828;5.688;2022-10-31T08:36:27;13.50;99.90
42245;DHT22;27912;51.828;5.688;2022-10-31T08:38:53;13.60;99.90
42245;DHT22;27912;51.828;5.688;2022-10-31T08:41:18;13.70;99.90
42245;DHT22;27912;51.828;5.688;2022-10-31T08:43:44;13.90;99.90
42245;DHT22;27912;51.828;5.688;2022-10-31T08:46:09;14.00;99.90
42245;DHT22;27912;51.828;5.688;2022-10-31T08:48:35;14.10;99.90
42245;DHT22;27912;51.828;5.688;2022-10-31T08:51:00;14.20;99.90
42245;DHT22;27912;51.828;5.688;2022-10-31T08:53:26;14.30;99.90
42245;DHT22;27912;51.828;5.688;2022-10-31T08:55:54;14.30;99.90
42245;DHT22;27912;51.828;5.688;2022-10-31T08:58:22;14.40;99.90
42245;DHT22;27912;51.828;5.688;2022-10-31T09:00:50;14.40;99.90
42245;DHT22;27912;51.828;5.688;2022-10-31T09:05:43;14.40;99.90
42245;DHT22;27912;51.828;5.688;2022-10-31T09:08:09;14.40;99.90
42245;DHT22;27912;51.828;5.688;2022-10-31T09:10:36;14.40;99.90
42245;DHT22;27912;51.828;5.688;2022-10-31T09:13:05;14.40;99.90
42245;DHT22;27912;51.828;5.688;2022-10-31T09:15:39;14.50;99.90
42245;DHT22;27912;51.828;5.688;2022-10-31T09:18:06;14.60;99.90
42245;DHT22;27912;51.828;5.688;2022-10-31T09:20:33;14.60;99.90
42245;DHT22;27912;51.828;5.688;2022-10-31T09:23:02;14.70;99.90
42245;DHT22;27912;51.828;5.688;2022-10-31T09:25:28;14.80;99.90
42245;DHT22;27912;51.828;5.688;2022-10-31T09:27:57;14.90;99.90
42245;DHT22;27912;51.828;5.688;2022-10-31T09:30:24;14.90;99.90
42245;DHT22;27912;51.828;5.688;2022-10-31T09:32:58;15.10;99.90
42245;DHT22;27912;51.828;5.688;2022-10-31T09:35:24;15.10;99.90
42245;DHT22;27912;51.828;5.688;2022-10-31T09:38:14;15.20;99.90
42245;DHT22;27912;51.828;5.688;2022-10-31T09:41:34;15.40;99.90
42245;DHT22;27912;51.828;5.688;2022-10-31T09:46:33;15.50;99.90
42245;DHT22;27912;51.828;5.688;2022-10-31T09:54:58;15.60;99.90
42245;DHT22;27912;51.828;5.688;2022-10-31T09:57:28;15.70;99.90
42245;DHT22;27912;51.828;5.688;2022-10-31T09:59:55;15.70;99.90
42245;DHT22;27912;51.828;5.688;2022-10-31T10:02:38;15.80;99.90
42245;DHT22;27912;51.828;5.688;2022-10-31T10:05:14;15.80;99.90
42245;DHT22;27912;51.828;5.688;2022-10-31T10:08:00;15.90;99.90
42245;DHT22;27912;51.828;5.688;2022-10-31T10:10:48;15.90;99.90
42245;DHT22;27912;51.828;5.688;2022-10-31T10:16:45;15.90;99.90
42245;DHT22;27912;51.828;5.688;2022-10-31T10:24:59;16.10;99.90
42245;DHT22;27912;51.828;5.688;2022-10-31T10:30:21;16.20;99.90
42245;DHT22;27912;51.828;5.688;2022-10-31T10:32:57;16.20;99.90
42245;DHT22;27912;51.828;5.688;2022-10-31T10:35:42;16.10;99.90
42245;DHT22;27912;51.828;5.688;2022-10-31T10:40:54;16.10;99.90
42245;DHT22;27912;51.828;5.688;2022-10-31T10:43:31;16.10;99.90
42245;DHT22;27912;51.828;5.688;2022-10-31T10:51:40;16.40;99.90
42245;DHT22;27912;51.828;5.688;2022-10-31T10:54:40;16.50;99.90
42245;DHT22;27912;51.828;5.688;2022-10-31T10:59:47;16.70;99.90
42245;DHT22;27912;51.828;5.688;2022-10-31T11:02:21;16.70;99.90
42245;DHT22;27912;51.828;5.688;2022-10-31T11:04:51;16.70;99.90
42245;DHT22;27912;51.828;5.688;2022-10-31T11:07:17;16.80;99.90
42245;DHT22;27912;51.828;5.688;2022-10-31T11:09:43;16.80;99.90
42245;DHT22;27912;51.828;5.688;2022-10-31T11:12:32;16.90;99.90
42245;DHT22;27912;51.828;5.688;2022-10-31T11:15:00;16.90;99.90
42245;DHT22;27912;51.828;5.688;2022-10-31T11:17:35;17.00;99.90
42245;DHT22;27912;51.828;5.688;2022-10-31T11:20:35;17.00;99.90
42245;DHT22;27912;51.828;5.688;2022-10-31T11:23:20;17.10;99.90
42245;DHT22;27912;51.828;5.688;2022-10-31T11:25:57;17.10;99.90
42245;DHT22;27912;51.828;5.688;2022-10-31T11:28:24;17.20;99.90
42245;DHT22;27912;51.828;5.688;2022-10-31T11:30:55;17.30;99.90
42245;DHT22;27912;51.828;5.688;2022-10-31T11:33:49;17.30;99.90
42245;DHT22;27912;51.828;5.688;2022-10-31T11:36:30;17.40;99.90
42245;DHT22;27912;51.828;5.688;2022-10-31T11:38:56;17.50;99.90
42245;DHT22;27912;51.828;5.688;2022-10-31T11:41:32;17.60;99.90
42245;DHT22;27912;51.828;5.688;2022-10-31T11:44:05;17.70;99.90
42245;DHT22;27912;51.828;5.688;2022-10-31T11:46:39;17.70;99.90
42245;DHT22;27912;51.828;5.688;2022-10-31T11:49:14;17.80;99.90
42245;DHT22;27912;51.828;5.688;2022-10-31T11:51:40;17.80;99.90
42245;DHT22;27912;51.828;5.688;2022-10-31T11:54:20;17.80;99.90
42245;DHT22;27912;51.828;5.688;2022-10-31T11:56:46;17.90;99.90
42245;DHT22;27912;51.828;5.688;2022-10-31T11:59:18;17.90;99.90
42245;DHT22;27912;51.828;5.688;2022-10-31T12:01:48;18.00;99.90
42245;DHT22;27912;51.828;5.688;2022-10-31T12:04:15;18.00;99.90
42245;DHT22;27912;51.828;5.688;2022-10-31T12:06:43;18.20;99.90
42245;DHT22;27912;51.828;5.688;2022-10-31T12:09:28;18.20;99.90
42245;DHT22;27912;51.828;5.688;2022-10-31T12:12:14;18.30;99.90
42245;DHT22;27912;51.828;5.688;2022-10-31T12:14:51;18.40;99.90
42245;DHT22;27912;51.828;5.688;2022-10-31T12:17:23;18.50;99.90
42245;DHT22;27912;51.828;5.688;2022-10-31T12:19:58;18.50;99.90
42245;DHT22;27912;51.828;5.688;2022-10-31T12:30:17;18.90;99.90
42245;DHT22;27912;51.828;5.688;2022-10-31T12:38:35;19.00;99.90
42245;DHT22;27912;51.828;5.688;2022-10-31T12:41:23;19.00;99.90
42245;DHT22;27912;51.828;5.688;2022-10-31T12:52:54;18.70;99.90
42245;DHT22;27912;51.828;5.688;2022-10-31T12:58:44;18.60;99.90
42245;DHT22;27912;51.828;5.688;2022-10-31T13:01:19;18.70;99.90
42245;DHT22;27912;51.828;5.688;2022-10-31T13:06:35;18.90;99.90
42245;DHT22;27912;51.828;5.688;2022-10-31T13:09:09;18.90;99.90
42245;DHT22;27912;51.828;5.688;2022-10-31T13:11:40;18.90;99.90
42245;DHT22;27912;51.828;5.688;2022-10-31T13:14:13;18.90;99.90
42245;DHT22;27912;51.828;5.688;2022-10-31T13:16:44;18.90;99.90
42245;DHT22;27912;51.828;5.688;2022-10-31T13:19:16;18.90;99.90
42245;DHT22;27912;51.828;5.688;2022-10-31T13:21:54;18.90;99.90
42245;DHT22;27912;51.828;5.688;2022-10-31T13:24:25;18.90;99.90
42245;DHT22;27912;51.828;5.688;2022-10-31T13:26:57;19.00;99.90
42245;DHT22;27912;51.828;5.688;2022-10-31T13:35:41;19.00;99.90
42245;DHT22;27912;51.828;5.688;2022-10-31T13:41:14;19.00;99.90
42245;DHT22;27912;51.828;5.688;2022-10-31T13:44:08;19.00;99.90
42245;DHT22;27912;51.828;5.688;2022-10-31T13:46:42;19.00;99.90
42245;DHT22;27912;51.828;5.688;2022-10-31T13:54:49;19.00;99.90
42245;DHT22;27912;51.828;5.688;2022-10-31T13:59:58;18.90;99.90
42245;DHT22;27912;51.828;5.688;2022-10-31T14:02:30;18.90;99.90
42245;DHT22;27912;51.828;5.688;2022-10-31T14:05:06;18.80;99.90
42245;DHT22;27912;51.828;5.688;2022-10-31T14:07:43;18.70;99.90
42245;DHT22;27912;51.828;5.688;2022-10-31T14:13:40;18.60;99.90
42245;DHT22;27912;51.828;5.688;2022-10-31T14:16:18;18.50;99.90
42245;DHT22;27912;51.828;5.688;2022-10-31T14:18:48;18.50;99.90
42245;DHT22;27912;51.828;5.688;2022-10-31T14:21:27;18.40;99.90
42245;DHT22;27912;51.828;5.688;2022-10-31T14:23:54;18.40;99.90
42245;DHT22;27912;51.828;5.688;2022-10-31T14:28:50;18.30;99.90
42245;DHT22;27912;51.828;5.688;2022-10-31T14:31:38;18.20;99.90
42245;DHT22;27912;51.828;5.688;2022-10-31T14:42:36;18.10;99.90
42245;DHT22;27912;51.828;5.688;2022-10-31T14:48:10;18.10;99.90
42245;DHT22;27912;51.828;5.688;2022-10-31T14:50:57;18.10;99.90
42245;DHT22;27912;51.828;5.688;2022-10-31T14:53:27;18.00;99.90
42245;DHT22;27912;51.828;5.688;2022-10-31T14:55:57;18.00;99.90
42245;DHT22;27912;51.828;5.688;2022-10-31T14:58:35;18.00;99.90
42245;DHT22;27912;51.828;5.688;2022-10-31T15:01:02;18.00;99.90
42245;DHT22;27912;51.828;5.688;2022-10-31T15:04:00;17.90;99.90
42245;DHT22;27912;51.828;5.688;2022-10-31T15:06:35;17.90;99.90
42245;DHT22;27912;51.828;5.688;2022-10-31T15:09:02;17.90;99.90
42245;DHT22;27912;51.828;5.688;2022-10-31T15:11:28;17.80;99.90
42245;DHT22;27912;51.828;5.688;2022-10-31T15:14:14;17.80;99.90
42245;DHT22;27912;51.828;5.688;2022-10-31T15:16:43;17.70;99.90
42245;DHT22;27912;51.828;5.688;2022-10-31T15:19:16;17.70;99.90
42245;DHT22;27912;51.828;5.688;2022-10-31T15:21:45;17.60;99.90
42245;DHT22;27912;51.828;5.688;2022-10-31T15:24:14;17.60;99.90
42245;DHT22;27912;51.828;5.688;2022-10-31T15:26:48;17.60;99.90
42245;DHT22;27912;51.828;5.688;2022-10-31T15:29:17;17.60;99.90
42245;DHT22;27912;51.828;5.688;2022-10-31T15:31:55;17.60;99.90
42245;DHT22;27912;51.828;5.688;2022-10-31T15:34:38;17.60;99.90
42245;DHT22;27912;51.828;5.688;2022-10-31T15:37:07;17.50;99.90
42245;DHT22;27912;51.828;5.688;2022-10-31T15:39:35;17.40;99.90
42245;DHT22;27912;51.828;5.688;2022-10-31T15:42:00;17.40;99.90
42245;DHT22;27912;51.828;5.688;2022-10-31T15:44:36;17.40;99.90
42245;DHT22;27912;51.828;5.688;2022-10-31T15:47:29;17.30;99.90
42245;DHT22;27912;51.828;5.688;2022-10-31T15:49:57;17.30;99.90
42245;DHT22;27912;51.828;5.688;2022-10-31T15:57:40;17.10;99.90
42245;DHT22;27912;51.828;5.688;2022-10-31T16:02:46;17.00;99.90
42245;DHT22;27912;51.828;5.688;2022-10-31T16:05:17;17.00;99.90
42245;DHT22;27912;51.828;5.688;2022-10-31T16:07:51;16.90;99.90
42245;DHT22;27912;51.828;5.688;2022-10-31T16:10:25;16.80;99.90
42245;DHT22;27912;51.828;5.688;2022-10-31T16:12:51;16.70;99.90
42245;DHT22;27912;51.828;5.688;2022-10-31T16:15:19;16.60;99.90
42245;DHT22;27912;51.828;5.688;2022-10-31T16:17:47;16.50;99.90
42245;DHT22;27912;51.828;5.688;2022-10-31T16:20:26;16.40;99.90
42245;DHT22;27912;51.828;5.688;2022-10-31T16:22:53;16.30;99.90
42245;DHT22;27912;51.828;5.688;2022-10-31T16:25:42;16.20;99.90
42245;DHT22;27912;51.828;5.688;2022-10-31T16:28:22;16.20;99.90
42245;DHT22;27912;51.828;5.688;2022-10-31T16:30:55;16.00;99.90
42245;DHT22;27912;51.828;5.688;2022-10-31T16:33:35;15.90;99.90
42245;DHT22;27912;51.828;5.688;2022-10-31T16:38:58;15.70;99.90
42245;DHT22;27912;51.828;5.688;2022-10-31T16:41:24;15.60;99.90
42245;DHT22;27912;51.828;5.688;2022-10-31T16:43:51;15.50;99.90
42245;DHT22;27912;51.828;5.688;2022-10-31T16:46:26;15.40;99.90
42245;DHT22;27912;51.828;5.688;2022-10-31T16:48:53;15.30;99.90
42245;DHT22;27912;51.828;5.688;2022-10-31T16:51:19;15.30;99.90
42245;DHT22;27912;51.828;5.688;2022-10-31T16:53:45;15.20;99.90
42245;DHT22;27912;51.828;5.688;2022-10-31T16:56:26;15.20;99.90
42245;DHT22;27912;51.828;5.688;2022-10-31T16:58:52;15.20;99.90
42245;DHT22;27912;51.828;5.688;2022-10-31T17:01:18;15.10;99.90
42245;DHT22;27912;51.828;5.688;2022-10-31T17:03:44;15.10;99.90
42245;DHT22;27912;51.828;5.688;2022-10-31T17:06:13;15.00;99.90
42245;DHT22;27912;51.828;5.688;2022-10-31T17:08:39;15.00;99.90
42245;DHT22;27912;51.828;5.688;2022-10-31T17:11:05;15.00;99.90
42245;DHT22;27912;51.828;5.688;2022-10-31T17:13:33;15.00;99.90
42245;DHT22;27912;51.828;5.688;2022-10-31T17:16:02;14.90;99.90
42245;DHT22;27912;51.828;5.688;2022-10-31T17:18:28;14.90;99.90
42245;DHT22;27912;51.828;5.688;2022-10-31T17:20:57;14.90;99.90
42245;DHT22;27912;51.828;5.688;2022-10-31T17:23:24;15.00;99.90
42245;DHT22;27912;51.828;5.688;2022-10-31T17:25:49;15.00;99.90
42245;DHT22;27912;51.828;5.688;2022-10-31T17:28:15;15.10;99.90
42245;DHT22;27912;51.828;5.688;2022-10-31T17:30:42;15.10;99.90
42245;DHT22;27912;51.828;5.688;2022-10-31T17:33:15;15.10;99.90
42245;DHT22;27912;51.828;5.688;2022-10-31T17:35:42;15.20;99.90
42245;DHT22;27912;51.828;5.688;2022-10-31T17:38:09;15.10;99.90
42245;DHT22;27912;51.828;5.688;2022-10-31T17:40:36;15.30;99.90
42245;DHT22;27912;51.828;5.688;2022-10-31T17:43:02;15.30;99.90
42245;DHT22;27912;51.828;5.688;2022-10-31T17:45:27;15.40;99.90
42245;DHT22;27912;51.828;5.688;2022-10-31T17:47:53;15.50;99.90
42245;DHT22;27912;51.828;5.688;2022-10-31T17:50:23;15.50;99.90
42245;DHT22;27912;51.828;5.688;2022-10-31T17:52:49;15.50;99.90
42245;DHT22;27912;51.828;5.688;2022-10-31T17:55:15;15.60;99.90
42245;DHT22;27912;51.828;5.688;2022-10-31T17:57:41;15.50;99.90
42245;DHT22;27912;51.828;5.688;2022-10-31T18:00:14;15.60;99.90